createdAt,value
2023-05-05T00:03:20.334Z,20.11
2023-05-05T00:08:23.259Z,20.10
2023-05-05T00:13:27.289Z,20.12
2023-05-05T00:18:30.184Z,20.10
2023-05-05T00:23:32.836Z,20.08
2023-05-05T00:28:36.823Z,20.07
2023-05-05T00:33:39.495Z,20.07
2023-05-05T00:38:42.930Z,20.06
2023-05-05T00:43:47.167Z,19.96
2023-05-05T00:48:49.920Z,20.04
2023-05-05T00:53:52.709Z,20.02
2023-05-05T00:58:58.356Z,20.01
2023-05-05T01:04:01.398Z,20.01
2023-05-05T01:09:09.862Z,19.99
2023-05-05T01:14:17.014Z,19.95
2023-05-05T01:19:33.641Z,19.92
2023-05-05T01:24:59.350Z,19.88
2023-05-05T01:30:09.883Z,19.87
2023-05-05T01:35:19.646Z,19.82
2023-05-05T01:40:26.686Z,19.77
2023-05-05T01:45:30.608Z,19.76
2023-05-05T01:50:35.011Z,19.71
2023-05-05T01:55:38.203Z,19.65
2023-05-05T02:00:41.562Z,19.61
2023-05-05T02:05:45.800Z,19.57
2023-05-05T02:10:49.047Z,19.53
2023-05-05T02:15:53.020Z,19.48
2023-05-05T02:20:57.198Z,19.45
2023-05-05T02:26:04.641Z,19.42
2023-05-05T02:31:08.515Z,19.39
2023-05-05T02:36:16.563Z,19.39
2023-05-05T02:41:26.784Z,19.39
2023-05-05T02:46:30.399Z,19.36
2023-05-05T02:51:34.527Z,19.36
2023-05-05T02:56:44.085Z,19.31
2023-05-05T03:01:57.076Z,19.27
2023-05-05T03:07:10.885Z,19.24
2023-05-05T03:12:17.955Z,19.23
2023-05-05T03:17:30.791Z,19.21
2023-05-05T03:22:37.950Z,19.18
2023-05-05T03:27:43.593Z,19.19
2023-05-05T03:32:49.812Z,19.18
2023-05-05T03:37:55.412Z,19.16
2023-05-05T03:42:58.748Z,19.16
2023-05-05T03:48:02.067Z,19.15
2023-05-05T03:53:07.054Z,19.15
2023-05-05T03:58:09.908Z,19.12
2023-05-05T04:03:12.750Z,19.13
2023-05-05T04:08:17.030Z,19.12
2023-05-05T04:13:19.846Z,19.10
2023-05-05T04:18:23.283Z,19.10
2023-05-05T04:23:27.933Z,19.11
2023-05-05T04:28:30.682Z,19.14
2023-05-05T04:33:33.378Z,19.17
2023-05-05T04:38:37.821Z,19.24
2023-05-05T04:43:41.246Z,19.30
2023-05-05T04:48:43.972Z,19.38
2023-05-05T04:53:48.315Z,19.41
2023-05-05T04:58:51.097Z,19.46
2023-05-05T05:03:54.148Z,19.50
2023-05-05T05:08:58.291Z,19.59
2023-05-05T05:14:01.029Z,19.71
2023-05-05T05:19:03.758Z,19.83
2023-05-05T05:24:11.026Z,20.06
2023-05-05T05:29:14.233Z,19.97
2023-05-05T05:34:17.122Z,19.92
2023-05-05T05:39:22.302Z,19.89
2023-05-05T05:44:25.915Z,19.90
2023-05-05T05:49:28.712Z,19.88
2023-05-05T05:54:34.408Z,19.93
2023-05-05T05:59:39.266Z,19.91
2023-05-05T06:04:42.556Z,19.91
2023-05-05T06:09:47.603Z,19.92
2023-05-05T06:14:52.206Z,19.91
2023-05-05T06:19:54.946Z,19.92
2023-05-05T06:24:59.259Z,20.00
2023-05-05T06:30:02.040Z,20.01
2023-05-05T06:35:05.125Z,20.10
2023-05-05T06:40:11.313Z,20.17
2023-05-05T06:45:14.212Z,20.23
2023-05-05T06:50:16.895Z,20.21
2023-05-05T06:55:21.275Z,20.33
2023-05-05T07:00:24.496Z,20.31
2023-05-05T07:05:27.129Z,20.43
2023-05-05T07:10:31.826Z,20.47
2023-05-05T07:15:34.641Z,20.50
2023-05-05T07:20:37.282Z,20.47
2023-05-05T07:25:41.347Z,20.42
2023-05-05T07:30:43.982Z,20.40
2023-05-05T07:35:46.848Z,20.38
2023-05-05T07:40:50.803Z,20.43
2023-05-05T07:45:53.549Z,20.45
2023-05-05T07:50:56.379Z,20.48
2023-05-05T07:56:00.398Z,20.45
2023-05-05T08:01:05.762Z,20.50
2023-05-05T08:06:09.850Z,20.49
2023-05-05T08:11:13.872Z,20.54
2023-05-05T08:16:16.602Z,20.51
2023-05-05T08:21:19.247Z,20.54
2023-05-05T08:26:23.464Z,20.58
2023-05-05T08:31:26.149Z,20.64
2023-05-05T08:36:29.007Z,20.59
2023-05-05T08:41:34.062Z,20.58
2023-05-05T08:46:37.545Z,20.58
2023-05-05T08:51:45.383Z,20.63
2023-05-05T08:56:51.303Z,20.67
2023-05-05T09:02:23.872Z,20.67
2023-05-05T09:07:26.568Z,20.72
2023-05-05T09:12:32.066Z,20.72
2023-05-05T09:17:34.998Z,20.67
2023-05-05T09:22:38.568Z,20.67
2023-05-05T09:27:45.699Z,20.72
2023-05-05T09:32:51.527Z,20.74
2023-05-05T09:37:54.174Z,20.79
2023-05-05T09:43:03.115Z,20.82
2023-05-05T09:48:06.280Z,20.78
2023-05-05T09:53:09.127Z,20.79
2023-05-05T09:58:20.397Z,20.75
2023-05-05T10:03:23.261Z,20.82
2023-05-05T10:08:28.049Z,20.79
2023-05-05T10:13:35.981Z,20.80
2023-05-05T10:18:41.356Z,20.79
2023-05-05T10:23:50.278Z,20.74
2023-05-05T10:28:56.820Z,20.80
2023-05-05T10:34:03.540Z,20.79
2023-05-05T10:39:09.246Z,20.82
2023-05-05T10:44:13.351Z,20.81
2023-05-05T10:49:25.684Z,20.82
2023-05-05T10:54:33.958Z,20.82
2023-05-05T10:59:43.435Z,20.84
2023-05-05T11:05:04.681Z,20.80
2023-05-05T11:10:08.722Z,20.85
2023-05-05T11:15:41.428Z,20.86
2023-05-05T11:21:08.960Z,20.87
2023-05-05T11:26:12.017Z,20.86
2023-05-05T11:31:20.011Z,20.88
2023-05-05T11:36:39.279Z,20.88
2023-05-05T11:41:52.928Z,20.88
2023-05-05T11:47:32.134Z,20.92
2023-05-05T11:52:34.874Z,20.93
2023-05-05T11:57:37.781Z,20.97
2023-05-05T12:02:42.214Z,20.99
2023-05-05T12:07:44.948Z,21.00
2023-05-05T12:12:48.439Z,21.07
2023-05-05T12:17:52.674Z,21.08
2023-05-05T12:23:00.834Z,21.10
2023-05-05T12:28:03.539Z,21.13
2023-05-05T12:33:08.499Z,21.13
2023-05-05T12:38:11.369Z,21.16
2023-05-05T12:43:35.409Z,21.16
2023-05-05T12:48:40.295Z,21.16
2023-05-05T12:53:43.286Z,21.15
2023-05-05T12:58:49.246Z,21.14
2023-05-05T13:04:15.470Z,21.13
2023-05-05T13:09:25.671Z,21.12
2023-05-05T13:14:28.321Z,21.12
2023-05-05T13:19:32.301Z,21.13
2023-05-05T13:24:46.612Z,21.14
2023-05-05T13:29:54.055Z,21.15
2023-05-05T13:34:58.094Z,21.16
2023-05-05T13:40:01.242Z,21.16
2023-05-05T13:45:04.263Z,21.20
2023-05-05T13:50:09.148Z,21.30
2023-05-05T13:55:11.848Z,21.54
2023-05-05T14:00:15.947Z,21.78
2023-05-05T14:05:20.179Z,21.58
2023-05-05T14:10:23.021Z,21.51
2023-05-05T14:15:25.685Z,21.50
2023-05-05T14:20:29.785Z,21.50
2023-05-05T14:25:32.460Z,21.52
2023-05-05T14:30:35.122Z,21.53
2023-05-05T14:35:39.123Z,21.54
2023-05-05T14:40:41.749Z,21.54
2023-05-05T14:45:45.128Z,21.56
2023-05-05T14:50:49.827Z,21.57
2023-05-05T14:55:52.560Z,21.60
2023-05-05T15:00:55.615Z,21.63
2023-05-05T15:17:00.925Z,21.84
2023-05-05T15:22:03.603Z,21.78
2023-05-05T15:27:06.388Z,21.83
2023-05-05T15:32:10.451Z,21.85
2023-05-05T15:37:13.142Z,21.88
2023-05-05T15:42:15.811Z,21.92
2023-05-05T15:47:19.775Z,21.95
2023-05-05T15:52:22.600Z,21.95
2023-05-05T15:57:25.294Z,21.97
2023-05-05T16:02:29.394Z,21.97
2023-05-05T16:07:32.082Z,21.98
2023-05-05T16:12:34.796Z,21.96
2023-05-05T16:17:38.768Z,21.95
2023-05-05T16:22:41.385Z,21.97
2023-05-05T16:27:44.047Z,21.97
2023-05-05T16:32:51.054Z,21.94
2023-05-05T16:37:53.734Z,21.90
2023-05-05T16:42:56.414Z,21.90
2023-05-05T16:48:00.475Z,21.88
2023-05-05T16:53:03.224Z,21.88
2023-05-05T16:58:05.866Z,21.89
2023-05-05T17:03:09.902Z,21.87
2023-05-05T17:08:14.100Z,21.83
2023-05-05T17:13:16.961Z,21.79
2023-05-05T17:18:22.664Z,21.73
2023-05-05T17:23:25.258Z,21.67
2023-05-05T17:28:27.857Z,21.59
2023-05-05T17:33:31.827Z,21.55
2023-05-05T17:38:34.513Z,21.49
2023-05-05T17:43:37.102Z,21.41
2023-05-05T17:48:41.216Z,21.36
2023-05-05T17:53:43.917Z,21.28
2023-05-05T17:58:46.523Z,21.20
2023-05-05T18:03:50.685Z,21.13
2023-05-05T18:08:53.719Z,21.09
2023-05-05T18:13:56.419Z,21.02
2023-05-05T18:19:00.390Z,21.02
2023-05-05T18:24:15.733Z,20.97
2023-05-05T18:29:22.945Z,20.93
2023-05-05T18:34:27.351Z,20.92
2023-05-05T18:39:30.234Z,20.89
2023-05-05T18:44:34.741Z,20.87
2023-05-05T18:49:38.915Z,20.85
2023-05-05T18:54:41.606Z,20.82
2023-05-05T18:59:44.559Z,20.76
2023-05-05T19:04:48.608Z,20.75
2023-05-05T19:09:51.385Z,20.71
2023-05-05T19:14:54.001Z,20.67
2023-05-05T19:19:57.993Z,20.63
2023-05-05T19:25:01.045Z,20.60
2023-05-05T19:30:04.050Z,20.57
2023-05-05T19:35:10.380Z,20.53
2023-05-05T19:40:13.952Z,20.48
2023-05-05T19:45:16.713Z,20.44
2023-05-05T19:50:21.254Z,20.39
2023-05-05T19:55:24.395Z,20.38
2023-05-05T20:00:27.264Z,20.36
2023-05-05T20:05:31.381Z,20.31
2023-05-05T20:10:34.066Z,20.27
2023-05-05T20:15:37.009Z,20.24
2023-05-05T20:20:41.084Z,20.21
2023-05-05T20:25:43.703Z,20.17
2023-05-05T20:30:46.354Z,20.13
2023-05-05T20:35:50.468Z,20.11
2023-05-05T20:40:53.109Z,20.05
2023-05-05T20:45:55.746Z,20.04
2023-05-05T20:50:59.843Z,19.98
2023-05-05T20:56:02.471Z,19.95
2023-05-05T21:01:05.261Z,19.94
2023-05-05T21:06:09.286Z,19.91
2023-05-05T21:11:11.946Z,19.87
2023-05-05T21:16:14.672Z,19.84
2023-05-05T21:21:18.761Z,19.84
2023-05-05T21:26:21.365Z,19.81
2023-05-05T21:31:23.990Z,19.79
2023-05-05T21:36:29.003Z,19.78
2023-05-05T21:41:31.642Z,19.76
2023-05-05T21:46:34.404Z,19.73
2023-05-05T21:51:38.376Z,19.71
2023-05-05T21:56:41.079Z,19.70
2023-05-05T22:01:43.853Z,19.65
2023-05-05T22:06:47.848Z,19.66
2023-05-05T22:11:52.208Z,19.61
2023-05-05T22:16:54.787Z,19.59
2023-05-05T22:21:59.520Z,19.57
2023-05-05T22:27:02.192Z,19.56
2023-05-05T22:32:04.828Z,19.54
2023-05-05T22:37:09.677Z,19.52
2023-05-05T22:42:12.347Z,19.52
2023-05-05T22:47:15.153Z,19.40
2023-05-05T22:52:19.369Z,19.50
2023-05-05T22:57:22.143Z,19.50
2023-05-05T23:02:26.382Z,19.48
2023-05-05T23:07:30.477Z,19.50
2023-05-05T23:12:33.151Z,19.49
2023-05-05T23:17:35.943Z,19.48
2023-05-05T23:22:40.089Z,19.46
2023-05-05T23:27:43.752Z,19.45
2023-05-05T23:32:46.640Z,19.43
2023-05-05T23:37:50.686Z,19.43
2023-05-05T23:42:53.301Z,19.42
2023-05-05T23:47:56.070Z,19.43
2023-05-05T23:53:00.066Z,19.38
2023-05-05T23:58:02.761Z,19.39
